Time;durP1;ratioP1;P1;durP2;ratioP2;P2;SDS_P1;SDS_P2;PMS_P1;PMS_P2;Temp;Humidity;BMP_temperature;BMP_pressure;BME280_temperature;BME280_humidity;BME280_pressure;Samples;Min_cycle;Max_cycle;Signal;HPM_P1;HPM_P2
2024/01/21 00:00:05;;;;;;;7.65;3.63;;;-2.90;99.90;;;;;;5056961;28;20025;-63
2024/01/21 00:02:31;;;;;;;8.63;2.72;;;-2.30;99.90;;;;;;4940888;29;20027;-64
2024/01/21 00:04:56;;;;;;;6.28;2.88;;;-2.50;99.90;;;;;;4956800;28;20384;-63
2024/01/21 00:07:24;;;;;;;10.70;3.47;;;-2.90;99.90;;;;;;4956794;28;20047;-64
2024/01/21 00:09:50;;;;;;;6.80;3.15;;;-2.80;99.90;;;;;;4956713;29;20032;-64
2024/01/21 00:12:16;;;;;;;7.35;3.20;;;-2.80;99.90;;;;;;4956693;29;20090;-63
2024/01/21 00:14:41;;;;;;;8.15;2.97;;;-2.90;99.90;;;;;;4956723;29;20067;-63
2024/01/21 00:17:07;;;;;;;7.85;3.20;;;-2.80;99.90;;;;;;4956443;29;20064;-64
2024/01/21 00:19:33;;;;;;;8.07;3.45;;;-2.30;99.90;;;;;;4956837;29;20074;-64
2024/01/21 00:21:58;;;;;;;6.85;2.97;;;-3.00;99.90;;;;;;4956540;28;20032;-63
2024/01/21 00:24:24;;;;;;;6.15;2.92;;;-3.10;99.90;;;;;;4956457;29;20443;-64
2024/01/21 00:26:49;;;;;;;7.32;2.72;;;-2.30;99.90;;;;;;4956515;28;20408;-63
2024/01/21 00:29:16;;;;;;;5.13;2.70;;;-3.20;99.90;;;;;;4956366;29;20582;-64
2024/01/21 00:31:42;;;;;;;8.88;2.53;;;-2.50;99.90;;;;;;4956408;28;20042;-63
2024/01/21 00:34:08;;;;;;;4.03;2.25;;;-1.10;99.90;;;;;;4956310;28;20031;-64
2024/01/21 00:36:33;;;;;;;6.22;2.80;;;-3.30;99.90;;;;;;4956202;29;20066;-65
2024/01/21 00:38:59;;;;;;;4.78;2.35;;;-3.40;99.90;;;;;;4973573;28;20124;-64
2024/01/21 00:41:25;;;;;;;7.45;2.88;;;-3.50;99.90;;;;;;5038655;28;20021;-64
2024/01/21 00:43:50;;;;;;;4.95;2.53;;;-0.90;99.90;;;;;;5038645;28;20461;-64
2024/01/21 00:46:16;;;;;;;6.32;2.90;;;-3.50;99.90;;;;;;5056230;28;20393;-64
2024/01/21 00:48:41;;;;;;;7.80;2.88;;;-2.40;99.90;;;;;;5038688;28;20035;-64
2024/01/21 00:51:07;;;;;;;16.30;3.50;;;-1.30;99.90;;;;;;5055296;28;20059;-63
2024/01/21 00:53:33;;;;;;;8.68;3.00;;;-3.60;99.90;;;;;;5056113;28;20045;-64
2024/01/21 00:55:58;;;;;;;12.98;3.25;;;-2.80;99.90;;;;;;5056023;28;20025;-64
2024/01/21 00:58:24;;;;;;;8.27;3.25;;;-3.50;99.90;;;;;;5055933;28;20033;-64
2024/01/21 01:00:49;;;;;;;7.07;3.28;;;-3.60;99.90;;;;;;5056377;28;20029;-64
2024/01/21 01:03:58;;;;;;;6.95;3.50;;;-3.70;99.90;;;;;;5038223;28;20382;-64
2024/01/21 01:06:23;;;;;;;;;;;-3.70;99.90;;;;;;5038057;28;20128;-64
2024/01/21 01:08:49;;;;;;;5.57;2.75;;;-2.40;99.90;;;;;;5038181;28;19948;-63
2024/01/21 01:11:15;;;;;;;9.35;3.22;;;-3.80;99.90;;;;;;5055741;28;20031;-64
2024/01/21 01:13:41;;;;;;;9.02;2.33;;;-3.80;99.90;;;;;;5038162;28;20029;-65
2024/01/21 01:16:06;;;;;;;6.68;2.95;;;-3.40;99.90;;;;;;5056103;28;20039;-64
2024/01/21 01:18:32;;;;;;;8.55;2.47;;;-3.30;99.90;;;;;;5055838;28;20025;-64
2024/01/21 01:20:58;;;;;;;7.22;2.97;;;-3.80;99.90;;;;;;5055768;28;20021;-64
2024/01/21 01:23:23;;;;;;;8.85;3.10;;;-3.70;99.90;;;;;;5038106;28;20025;-65
2024/01/21 01:25:49;;;;;;;10.13;2.85;;;-3.10;99.90;;;;;;5055375;28;20025;-64
2024/01/21 01:28:14;;;;;;;12.40;2.60;;;-3.20;99.90;;;;;;5055883;28;20527;-64
2024/01/21 01:30:40;;;;;;;6.45;2.50;;;-3.60;99.90;;;;;;5055866;28;20029;-64
2024/01/21 01:33:06;;;;;;;5.82;2.22;;;-3.20;99.90;;;;;;5037661;28;20029;-64
2024/01/21 01:35:31;;;;;;;5.75;2.60;;;-4.10;99.90;;;;;;5055461;28;20037;-64
2024/01/21 01:37:57;;;;;;;27.05;5.90;;;-2.60;99.90;;;;;;5055774;28;20112;-64
2024/01/21 01:40:23;;;;;;;11.38;2.70;;;-4.30;99.90;;;;;;5055856;28;20108;-64
2024/01/21 01:42:57;;;;;;;9.23;2.65;;;-2.40;99.90;;;;;;5055319;28;20050;-65
2024/01/21 01:45:23;;;;;;;9.88;2.40;;;-4.50;99.90;;;;;;5055522;28;20035;-64
2024/01/21 01:47:50;;;;;;;6.57;2.70;;;-2.80;99.90;;;;;;5037829;28;20036;-64
2024/01/21 01:50:17;;;;;;;7.85;3.03;;;-3.90;99.90;;;;;;5036997;28;20110;-64
2024/01/21 01:52:43;;;;;;;8.93;2.40;;;-2.30;99.90;;;;;;5055573;28;20025;-64
2024/01/21 01:55:09;;;;;;;7.43;2.80;;;-3.10;99.90;;;;;;5067557;28;20385;-64
2024/01/21 01:57:36;;;;;;;6.15;3.20;;;-4.80;99.90;;;;;;5074763;28;20131;-65
2024/01/21 02:00:06;;;;;;;6.80;2.45;;;-4.80;99.90;;;;;;5073674;28;20547;-65
2024/01/21 02:02:33;;;;;;;7.30;2.70;;;-4.70;99.90;;;;;;5074376;28;20542;-64
2024/01/21 02:05:03;;;;;;;8.55;3.10;;;-3.20;99.90;;;;;;5074915;28;20036;-65
2024/01/21 02:07:30;;;;;;;6.43;3.05;;;-4.70;99.90;;;;;;5075426;28;20032;-64
2024/01/21 02:09:55;;;;;;;6.88;2.67;;;-4.70;99.90;;;;;;5073545;28;20112;-64
2024/01/21 02:12:21;;;;;;;6.03;2.92;;;-3.80;99.90;;;;;;5074460;28;20107;-64
2024/01/21 02:14:47;;;;;;;7.45;3.20;;;-4.60;99.90;;;;;;5074425;28;20384;-65
2024/01/21 02:17:12;;;;;;;6.75;2.30;;;-3.70;99.90;;;;;;5074611;28;20490;-64
2024/01/21 02:19:38;;;;;;;9.35;2.88;;;-4.60;99.90;;;;;;5073343;28;20480;-64
2024/01/21 02:22:04;;;;;;;6.38;2.50;;;-4.50;99.90;;;;;;5075185;28;20025;-64
2024/01/21 02:24:31;;;;;;;6.40;2.45;;;-4.50;99.90;;;;;;5074749;28;20028;-64
2024/01/21 02:26:57;;;;;;;7.57;2.45;;;-2.60;99.90;;;;;;5073190;28;20568;-65
2024/01/21 02:29:23;;;;;;;5.50;2.65;;;-4.60;99.90;;;;;;5074476;28;20074;-64
2024/01/21 02:31:52;;;;;;;6.95;2.58;;;-4.70;99.90;;;;;;5073172;28;20048;-65
2024/01/21 02:34:17;;;;;;;10.73;3.03;;;-3.10;99.90;;;;;;5073118;28;20067;-64
2024/01/21 02:36:43;;;;;;;5.75;2.72;;;-2.80;99.90;;;;;;5072943;28;20056;-65
2024/01/21 02:39:09;;;;;;;8.98;3.17;;;-2.30;99.90;;;;;;5074016;28;20033;-65
2024/01/21 02:41:34;;;;;;;5.20;2.50;;;-5.00;99.90;;;;;;5074279;28;20079;-64
2024/01/21 02:44:01;;;;;;;9.93;2.72;;;-5.00;99.90;;;;;;5074234;28;20021;-64
2024/01/21 02:46:26;;;;;;;4.82;2.22;;;-5.10;99.90;;;;;;5074149;28;20032;-64
2024/01/21 02:48:53;;;;;;;7.57;3.20;;;;;;;;;;5072894;28;20028;-65
2024/01/21 02:51:18;;;;;;;7.18;3.05;;;-5.20;99.90;;;;;;5073876;28;20020;-64
2024/01/21 02:53:44;;;;;;;8.20;2.83;;;-4.30;99.90;;;;;;5068446;28;20053;-64
2024/01/21 02:56:23;;;;;;;9.73;3.30;;;-5.30;99.90;;;;;;5036112;28;20025;-64
2024/01/21 02:58:52;;;;;;;5.15;2.80;;;-5.40;99.90;;;;;;5054353;28;20040;-64
2024/01/21 03:01:19;;;;;;;9.02;3.63;;;-5.40;99.90;;;;;;5036086;28;20029;-64
2024/01/21 03:03:45;;;;;;;12.18;3.13;;;-5.40;99.90;;;;;;5053675;28;20029;-64
2024/01/21 03:06:11;;;;;;;8.55;2.58;;;-5.40;99.90;;;;;;5036306;28;20059;-64
2024/01/21 03:08:37;;;;;;;4.55;2.58;;;-4.20;99.90;;;;;;5035972;28;20052;-64
2024/01/21 03:11:03;;;;;;;8.90;3.58;;;-3.00;99.90;;;;;;5035980;28;20025;-63
2024/01/21 03:13:29;;;;;;;13.35;2.95;;;-5.60;99.90;;;;;;5053817;28;20074;-64
2024/01/21 03:15:56;;;;;;;5.72;2.47;;;-5.60;99.90;;;;;;5053064;28;20029;-63
2024/01/21 03:18:22;;;;;;;11.18;3.28;;;-5.70;99.90;;;;;;5035919;28;20036;-63
2024/01/21 03:20:48;;;;;;;6.97;3.00;;;-3.40;99.90;;;;;;5053758;28;20052;-63
2024/01/21 03:23:14;;;;;;;7.70;3.05;;;-5.70;99.90;;;;;;5053709;28;20036;-64
2024/01/21 03:25:40;;;;;;;7.00;2.80;;;-3.70;99.90;;;;;;5053700;28;20025;-63
2024/01/21 03:28:06;;;;;;;7.45;2.70;;;-5.80;99.90;;;;;;5035813;28;20060;-63
2024/01/21 03:30:31;;;;;;;8.52;2.53;;;-4.10;99.90;;;;;;5053677;28;20477;-63
2024/01/21 03:32:57;;;;;;;3.47;2.35;;;-5.80;99.90;;;;;;5053594;28;20094;-63
2024/01/21 03:35:22;;;;;;;8.10;2.38;;;-4.80;99.90;;;;;;5053257;28;20028;-63
2024/01/21 03:37:49;;;;;;;5.70;2.83;;;-5.70;99.90;;;;;;5053875;28;20035;-63
2024/01/21 03:40:15;;;;;;;6.35;2.83;;;-5.70;99.90;;;;;;5053561;28;20029;-63
2024/01/21 03:42:43;;;;;;;10.38;2.45;;;-5.70;99.90;;;;;;5053663;28;20036;-63
2024/01/21 03:45:08;;;;;;;7.57;2.97;;;-3.30;99.90;;;;;;5053567;28;20104;-64
2024/01/21 03:47:34;;;;;;;7.80;2.90;;;-5.70;99.90;;;;;;5053404;28;20112;-64
2024/01/21 03:50:00;;;;;;;9.18;2.83;;;-5.70;99.90;;;;;;5053251;28;20083;-63
2024/01/21 03:52:26;;;;;;;6.43;3.10;;;-5.00;99.90;;;;;;5035687;28;20082;-64
2024/01/21 03:54:53;;;;;;;6.25;2.25;;;-3.80;99.90;;;;;;5061669;28;20052;-63
2024/01/21 03:57:18;;;;;;;6.03;3.00;;;-4.50;99.90;;;;;;5072407;28;20032;-63
2024/01/21 03:59:44;;;;;;;12.80;3.28;;;-3.60;99.90;;;;;;5073325;28;20051;-63
2024/01/21 04:02:09;;;;;;;10.77;2.85;;;-5.10;99.90;;;;;;5073852;28;20025;-63
2024/01/21 04:04:35;;;;;;;9.23;3.60;;;-4.10;99.90;;;;;;5073542;28;20031;-64
2024/01/21 04:07:01;;;;;;;7.90;3.03;;;-5.90;99.90;;;;;;5073489;28;20028;-64
2024/01/21 04:09:26;;;;;;;6.97;2.75;;;-4.90;99.90;;;;;;5072008;28;20115;-65
2024/01/21 04:11:52;;;;;;;10.90;3.28;;;-5.90;99.90;;;;;;5073358;28;20060;-64
2024/01/21 04:14:18;;;;;;;6.55;3.42;;;-4.10;99.90;;;;;;5073538;28;20029;-64
2024/01/21 04:16:43;;;;;;;7.85;3.55;;;-6.00;99.90;;;;;;5072237;28;20460;-64
2024/01/21 04:19:09;;;;;;;7.28;2.50;;;-6.00;99.90;;;;;;5073537;28;20029;-64
2024/01/21 04:21:36;;;;;;;7.03;3.33;;;-5.90;99.90;;;;;;5072342;28;20051;-64
2024/01/21 04:24:02;;;;;;;6.82;2.78;;;-4.10;99.90;;;;;;5073149;28;20108;-63
2024/01/21 04:26:28;;;;;;;7.45;2.65;;;-5.90;99.90;;;;;;5073787;28;20452;-64
2024/01/21 04:28:54;;;;;;;8.65;2.75;;;-5.90;99.90;;;;;;5076506;28;20465;-64
2024/01/21 04:31:20;;;;;;;6.47;3.13;;;-4.20;99.90;;;;;;5076449;28;20025;-63
2024/01/21 04:33:45;;;;;;;5.90;2.90;;;-5.40;99.90;;;;;;5075356;28;20039;-64
2024/01/21 04:36:18;;;;;;;7.75;3.35;;;-6.00;99.90;;;;;;5075297;28;20039;-63
2024/01/21 04:38:45;;;;;;;6.80;3.38;;;-6.10;99.90;;;;;;5076313;28;20425;-63
2024/01/21 04:41:13;;;;;;;7.85;3.10;;;-3.40;99.90;;;;;;5075448;28;20051;-64
2024/01/21 04:43:39;;;;;;;7.18;2.63;;;-6.10;99.90;;;;;;5075264;28;20024;-63
2024/01/21 04:46:04;;;;;;;17.67;3.00;;;-4.00;99.90;;;;;;5076468;28;20034;-64
2024/01/21 04:48:30;;;;;;;12.55;3.10;;;-6.10;99.90;;;;;;5076179;28;20024;-63
2024/01/21 04:50:55;;;;;;;16.30;2.75;;;-4.30;99.90;;;;;;5076688;28;20036;-63
2024/01/21 04:53:21;;;;;;;5.60;3.45;;;-5.60;99.90;;;;;;5072484;28;20033;-64
2024/01/21 04:55:47;;;;;;;6.07;2.75;;;-6.20;99.90;;;;;;5056416;28;20032;-64
2024/01/21 04:58:12;;;;;;;6.05;2.85;;;-4.40;99.90;;;;;;5056269;28;20021;-64
2024/01/21 05:00:38;;;;;;;10.82;3.10;;;-6.20;99.90;;;;;;5056239;28;20350;-63
2024/01/21 05:03:04;;;;;;;9.02;2.70;;;-6.20;99.90;;;;;;5056150;28;20044;-64
2024/01/21 05:05:29;;;;;;;13.25;3.05;;;-6.20;99.90;;;;;;5055845;28;20418;-64
2024/01/21 05:07:55;;;;;;;7.93;3.55;;;-5.00;99.90;;;;;;5056069;28;20032;-64
2024/01/21 05:10:21;;;;;;;10.68;3.00;;;-6.30;99.90;;;;;;5056286;28;20029;-64
2024/01/21 05:12:46;;;;;;;8.40;3.08;;;-6.30;99.90;;;;;;5055682;28;20029;-64
2024/01/21 05:15:12;;;;;;;8.50;3.33;;;-3.90;99.90;;;;;;5038020;28;20120;-63
2024/01/21 05:17:37;;;;;;;8.88;2.88;;;-6.30;99.90;;;;;;5055846;28;20032;-64
2024/01/21 05:20:04;;;;;;;10.07;3.03;;;-6.30;99.90;;;;;;5055566;28;20465;-64
2024/01/21 05:22:30;;;;;;;10.52;3.33;;;-6.30;99.90;;;;;;5056247;28;20021;-63
2024/01/21 05:24:57;;;;;;;7.05;3.45;;;-4.60;99.90;;;;;;5055999;28;20131;-63
2024/01/21 05:27:22;;;;;;;7.53;2.63;;;-6.30;99.90;;;;;;5037520;28;20036;-63
2024/01/21 05:29:48;;;;;;;9.57;3.47;;;-6.40;99.90;;;;;;5038064;28;20025;-63
2024/01/21 05:32:14;;;;;;;13.00;3.17;;;-4.50;99.90;;;;;;5055649;28;20394;-63
2024/01/21 05:34:39;;;;;;;8.90;3.65;;;-4.90;99.90;;;;;;5055730;28;20028;-63
2024/01/21 05:37:05;;;;;;;9.07;2.95;;;-6.40;99.90;;;;;;5054989;28;20029;-64
2024/01/21 05:39:31;;;;;;;9.20;3.28;;;-6.40;99.90;;;;;;5055282;28;20036;-63
2024/01/21 05:42:05;;;;;;;6.63;3.35;;;-5.20;99.90;;;;;;5055459;28;20021;-63
2024/01/21 05:44:31;;;;;;;11.75;3.88;;;-6.50;99.90;;;;;;5055560;28;20021;-63
2024/01/21 05:46:57;;;;;;;8.38;3.10;;;-4.00;99.90;;;;;;5055351;28;20070;-63
2024/01/21 05:49:23;;;;;;;6.07;3.40;;;-6.60;99.90;;;;;;5037438;28;20056;-63
2024/01/21 05:51:49;;;;;;;7.20;3.30;;;-6.60;99.90;;;;;;5055228;28;20025;-63
2024/01/21 05:54:15;;;;;;;8.25;3.35;;;-6.10;99.90;;;;;;5055277;28;20041;-63
2024/01/21 05:56:41;;;;;;;6.72;3.05;;;-6.70;99.90;;;;;;5037392;28;20029;-63
2024/01/21 05:59:07;;;;;;;5.65;3.58;;;-4.50;99.90;;;;;;5055486;28;20071;-63
2024/01/21 06:01:32;;;;;;;8.25;3.00;;;-5.20;99.90;;;;;;5055974;28;20029;-64
2024/01/21 06:03:58;;;;;;;10.88;3.47;;;-4.90;99.90;;;;;;5056134;28;20108;-64
2024/01/21 06:06:23;;;;;;;9.70;3.45;;;-6.70;99.90;;;;;;5055298;28;20088;-65
2024/01/21 06:08:49;;;;;;;8.45;3.45;;;-4.50;99.90;;;;;;5037908;28;20056;-67
2024/01/21 06:11:15;;;;;;;10.30;3.85;;;-6.70;99.90;;;;;;5037291;28;20032;-64
2024/01/21 06:13:40;;;;;;;7.10;3.05;;;-6.80;99.90;;;;;;5054548;28;20036;-63
2024/01/21 06:16:06;;;;;;;9.55;3.08;;;-6.80;99.90;;;;;;5054898;28;20405;-63
2024/01/21 06:18:32;;;;;;;7.90;3.25;;;-6.80;99.90;;;;;;5055229;28;20372;-63
2024/01/21 06:20:57;;;;;;;12.05;3.20;;;-6.30;99.90;;;;;;5054390;28;20037;-64
2024/01/21 06:23:23;;;;;;;8.50;3.53;;;-6.90;99.90;;;;;;5036934;28;20025;-63
2024/01/21 06:25:49;;;;;;;11.50;3.78;;;-6.90;99.90;;;;;;5054291;28;20549;-63
2024/01/21 06:28:16;;;;;;;7.35;3.22;;;-4.90;99.90;;;;;;5054890;28;20032;-63
2024/01/21 06:30:42;;;;;;;9.07;3.22;;;-6.90;99.90;;;;;;5036658;28;20531;-63
2024/01/21 06:33:07;;;;;;;10.25;4.40;;;-4.70;99.90;;;;;;5036653;28;20025;-64
2024/01/21 06:35:33;;;;;;;7.80;3.20;;;-4.80;99.90;;;;;;5054419;28;20453;-63
2024/01/21 06:37:59;;;;;;;14.65;3.38;;;-4.70;99.90;;;;;;5036490;28;20488;-64
2024/01/21 06:40:24;;;;;;;11.43;3.35;;;-6.90;99.90;;;;;;5054123;28;20029;-64
2024/01/21 06:42:50;;;;;;;8.18;3.17;;;-7.00;99.90;;;;;;5036171;28;20053;-63
2024/01/21 06:45:16;;;;;;;6.60;2.88;;;-6.30;99.90;;;;;;5036393;28;20024;-64
2024/01/21 06:47:41;;;;;;;6.20;3.25;;;-7.00;99.90;;;;;;5054179;28;20040;-64
2024/01/21 06:50:09;;;;;;;8.10;3.50;;;-4.50;99.90;;;;;;5053514;28;20025;-64
2024/01/21 06:52:35;;;;;;;8.77;2.75;;;-7.00;99.90;;;;;;5054192;28;20032;-64
2024/01/21 06:55:01;;;;;;;7.18;3.65;;;-6.80;99.90;;;;;;5053843;28;20045;-64
2024/01/21 06:57:27;;;;;;;10.82;3.90;;;-7.00;99.90;;;;;;5054058;28;20032;-63
2024/01/21 06:59:53;;;;;;;14.90;4.32;;;-7.00;99.90;;;;;;5054021;28;20029;-63
2024/01/21 07:02:19;;;;;;;9.85;4.55;;;-6.90;99.90;;;;;;5053671;28;20021;-64
2024/01/21 07:04:44;;;;;;;13.23;5.55;;;-7.00;99.90;;;;;;5053874;28;20488;-63
2024/01/21 07:07:10;;;;;;;13.13;5.55;;;-6.20;99.90;;;;;;5053610;28;20473;-63
2024/01/21 07:09:41;;;;;;;13.35;5.30;;;-5.30;99.90;;;;;;5054000;28;20461;-63
2024/01/21 07:12:06;;;;;;;15.98;4.70;;;-6.90;99.90;;;;;;5036342;28;20373;-63
2024/01/21 07:14:34;;;;;;;10.32;5.30;;;-6.90;99.90;;;;;;5036156;28;20040;-63
2024/01/21 07:17:01;;;;;;;12.25;4.50;;;-5.70;99.90;;;;;;5053940;28;20373;-63
2024/01/21 07:19:27;;;;;;;16.65;7.07;;;-5.50;99.90;;;;;;5053836;28;20021;-64
2024/01/21 07:21:52;;;;;;;14.65;6.13;;;-6.80;99.90;;;;;;5053749;28;20033;-63
2024/01/21 07:24:18;;;;;;;16.25;7.05;;;-5.00;99.90;;;;;;5035893;28;20032;-64
2024/01/21 07:26:43;;;;;;;17.38;6.28;;;-4.10;99.90;;;;;;5053676;28;20028;-64
2024/01/21 07:29:09;;;;;;;19.00;7.03;;;-6.50;99.90;;;;;;5053919;28;20025;-63
2024/01/21 07:31:35;;;;;;;24.95;7.57;;;-6.00;99.90;;;;;;5035820;28;20465;-64
2024/01/21 07:34:00;;;;;;;14.57;5.88;;;-6.60;99.90;;;;;;5053631;28;20021;-63
2024/01/21 07:36:26;;;;;;;13.60;4.63;;;-4.70;99.90;;;;;;5053847;28;20028;-64
2024/01/21 07:38:52;;;;;;;20.13;5.70;;;-6.50;99.90;;;;;;5035752;28;20033;-64
2024/01/21 07:41:17;;;;;;;18.77;7.00;;;-5.40;99.90;;;;;;5035674;28;20457;-64
2024/01/21 07:43:43;;;;;;;21.30;9.32;;;-5.40;99.90;;;;;;5054165;28;20115;-65
2024/01/21 07:46:09;;;;;;;25.42;10.38;;;-6.60;99.90;;;;;;5054787;28;20051;-70
2024/01/21 07:48:35;;;;;;;16.15;7.32;;;-6.50;99.90;;;;;;5054563;28;20424;-64
2024/01/21 07:51:00;;;;;;;9.85;5.35;;;-4.20;99.90;;;;;;5036144;28;20121;-64
2024/01/21 07:53:26;;;;;;;16.48;5.53;;;-6.50;99.90;;;;;;5036439;28;20061;-64
2024/01/21 07:55:53;;;;;;;14.45;6.43;;;-6.40;99.90;;;;;;5054041;28;20094;-64
2024/01/21 07:58:19;;;;;;;10.82;5.18;;;-5.90;99.90;;;;;;5036332;28;20040;-63
2024/01/21 08:00:45;;;;;;;12.70;4.20;;;-4.50;99.90;;;;;;5055040;28;20025;-63
2024/01/21 08:03:11;;;;;;;16.90;4.82;;;-6.30;99.90;;;;;;5058023;28;20064;-65
2024/01/21 08:05:37;;;;;;;10.63;3.92;;;-6.20;99.90;;;;;;5040267;28;20095;-63
2024/01/21 08:08:03;;;;;;;12.90;5.38;;;-6.00;99.90;;;;;;5057961;28;20021;-64
2024/01/21 08:10:29;;;;;;;15.40;4.57;;;-5.80;99.90;;;;;;5040331;28;20112;-66
2024/01/21 08:12:55;;;;;;;9.60;3.90;;;-5.40;99.90;;;;;;5057880;28;20077;-65
2024/01/21 08:15:20;;;;;;;8.13;3.25;;;-4.80;99.90;;;;;;5039592;28;20488;-65
2024/01/21 08:17:46;;;;;;;10.00;3.28;;;-3.80;99.90;;;;;;5057360;28;20082;-65
2024/01/21 08:20:12;;;;;;;9.32;2.70;;;-1.60;99.90;;;;;;5039266;28;20040;-65
2024/01/21 08:22:38;;;;;;;10.32;3.45;;;-2.80;99.90;;;;;;5039588;28;20384;-66
2024/01/21 08:25:04;;;;;;;7.97;3.20;;;-2.10;99.90;;;;;;5057495;28;20032;-65
2024/01/21 08:27:31;;;;;;;5.13;2.67;;;-1.50;99.90;;;;;;5039120;28;20029;-65
2024/01/21 08:29:56;;;;;;;9.88;3.80;;;-1.00;99.90;;;;;;5056993;28;20021;-65
2024/01/21 08:32:22;;;;;;;9.30;3.90;;;-0.60;99.90;;;;;;5057200;28;20075;-65
2024/01/21 08:34:48;;;;;;;12.32;4.32;;;-0.20;99.90;;;;;;5056791;28;20373;-65
2024/01/21 08:37:14;;;;;;;11.65;4.95;;;0.30;99.90;;;;;;5056571;28;20037;-64
2024/01/21 08:39:39;;;;;;;9.85;4.28;;;1.00;99.90;;;;;;5057057;28;20037;-64
2024/01/21 08:42:05;;;;;;;7.25;4.13;;;1.40;98.40;;;;;;5057896;28;20020;-64
2024/01/21 08:44:31;;;;;;;7.43;3.90;;;2.00;96.00;;;;;;5065133;28;20025;-63
2024/01/21 08:46:58;;;;;;;7.25;4.40;;;2.60;93.30;;;;;;5076470;28;20071;-64
2024/01/21 08:49:26;;;;;;;7.30;3.83;;;3.20;90.30;;;;;;5062797;28;20021;-65
2024/01/21 08:51:51;;;;;;;5.30;3.38;;;3.60;86.00;;;;;;5057372;28;20070;-67
2024/01/21 08:54:17;;;;;;;7.72;3.80;;;4.10;83.30;;;;;;5054440;28;20044;-65
2024/01/21 08:56:43;;;;;;;5.82;3.53;;;4.50;80.10;;;;;;5076583;28;20039;-66
2024/01/21 08:59:10;;;;;;;8.30;3.60;;;5.30;77.10;;;;;;5076407;28;20032;-66
2024/01/21 09:01:36;;;;;;;5.78;3.10;;;5.80;71.50;;;;;;5090782;28;20028;-66
2024/01/21 09:04:02;;;;;;;9.07;3.28;;;6.00;69.20;;;;;;5095779;28;20028;-70
2024/01/21 09:06:28;;;;;;;12.43;3.75;;;6.50;65.70;;;;;;5097926;28;20107;-67
2024/01/21 09:08:54;;;;;;;10.07;3.85;;;6.80;64.00;;;;;;5096624;28;20455;-68
2024/01/21 09:11:21;;;;;;;17.20;4.15;;;6.90;61.90;;;;;;5095433;28;20550;-68
2024/01/21 09:13:46;;;;;;;6.88;3.78;;;7.40;60.40;;;;;;5095345;28;20054;-68
2024/01/21 09:16:19;;;;;;;10.63;3.55;;;7.70;58.20;;;;;;5096600;28;20063;-70
2024/01/21 09:18:46;;;;;;;6.93;3.25;;;7.90;54.50;;;;;;5096458;28;20036;-60
2024/01/21 09:21:18;;;;;;;13.63;3.92;;;8.00;54.50;;;;;;5096225;28;20513;-60
2024/01/21 09:23:43;;;;;;;13.40;3.78;;;8.00;53.80;;;;;;5095778;28;20074;-61
2024/01/21 09:26:09;;;;;;;23.40;3.85;;;8.00;53.30;;;;;;5096084;28;20380;-60
2024/01/21 09:28:36;;;;;;;7.30;3.13;;;8.00;52.50;;;;;;5096004;28;20039;-65
2024/01/21 09:31:02;;;;;;;10.82;3.22;;;8.60;51.10;;;;;;5094633;28;20506;-65
2024/01/21 09:33:28;;;;;;;8.88;2.80;;;9.10;49.50;;;;;;5096092;28;20464;-65
2024/01/21 09:35:54;;;;;;;6.95;3.40;;;9.30;48.40;;;;;;5094424;28;20035;-65
2024/01/21 09:38:21;;;;;;;8.90;3.22;;;9.40;48.30;;;;;;5095709;28;20031;-65
2024/01/21 09:40:57;;;;;;;8.38;2.75;;;9.90;46.30;;;;;;5095678;28;20052;-65
2024/01/21 09:43:24;;;;;;;27.38;3.88;;;10.30;46.00;;;;;;5095603;28;20023;-65
2024/01/21 09:45:50;;;;;;;26.00;3.85;;;10.90;45.30;;;;;;5095039;28;20142;-64
2024/01/21 09:48:16;;;;;;;14.45;3.55;;;11.40;44.00;;;;;;5095686;28;20089;-63
2024/01/21 09:50:43;;;;;;;22.15;4.28;;;11.90;43.40;;;;;;5095337;28;20111;-66
2024/01/21 09:53:09;;;;;;;37.50;5.45;;;11.90;41.10;;;;;;5094934;28;20371;-65
2024/01/21 09:55:34;;;;;;;14.63;4.03;;;11.50;41.40;;;;;;5075464;28;20104;-65
2024/01/21 09:58:06;;;;;;;15.93;3.75;;;11.20;41.50;;;;;;5075045;28;20412;-65
2024/01/21 10:00:31;;;;;;;40.03;5.38;;;11.40;41.60;;;;;;5056828;28;20367;-65
2024/01/21 10:02:57;;;;;;;13.15;4.28;;;11.40;40.60;;;;;;5074528;28;20028;-65
2024/01/21 10:05:23;;;;;;;46.92;6.38;;;11.60;40.10;;;;;;5075000;28;20062;-65
2024/01/21 10:07:49;;;;;;;57.05;8.60;;;11.50;39.70;;;;;;5074825;28;20056;-65
2024/01/21 10:10:16;;;;;;;17.30;3.72;;;11.30;40.40;;;;;;5075058;28;20035;-66
2024/01/21 10:12:42;;;;;;;16.73;3.63;;;10.70;39.30;;;;;;5056906;28;20120;-65
2024/01/21 10:15:11;;;;;;;33.38;5.40;;;9.90;39.90;;;;;;5074812;28;20067;-65
2024/01/21 10:17:37;;;;;;;;;;;9.70;42.00;;;;;;5074275;28;20066;-66
2024/01/21 10:20:02;;;;;;;15.43;3.85;;;9.20;41.40;;;;;;5074310;28;19959;-65
2024/01/21 10:22:28;;;;;;;12.98;3.80;;;9.20;42.30;;;;;;5074477;28;20055;-65
2024/01/21 10:24:55;;;;;;;6.32;2.42;;;9.30;42.40;;;;;;5056245;28;20452;-65
2024/01/21 10:27:21;;;;;;;21.20;4.72;;;9.20;40.30;;;;;;5074388;28;20029;-65
2024/01/21 10:29:47;;;;;;;47.35;5.28;;;9.40;41.00;;;;;;5074194;28;20100;-65
2024/01/21 10:32:14;;;;;;;9.43;3.20;;;9.70;41.10;;;;;;5074221;28;20025;-65
2024/01/21 10:34:42;;;;;;;18.58;3.67;;;9.90;40.40;;;;;;5074306;28;20029;-65
2024/01/21 10:37:08;;;;;;;33.63;6.57;;;9.90;40.50;;;;;;5056143;28;20453;-65
2024/01/21 10:39:37;;;;;;;23.20;3.80;;;9.90;40.10;;;;;;5074322;28;20063;-65
2024/01/21 10:42:05;;;;;;;9.30;3.03;;;9.60;40.50;;;;;;5056088;28;20021;-65
2024/01/21 10:44:33;;;;;;;18.40;2.65;;;9.00;40.10;;;;;;5074140;28;20031;-65
2024/01/21 10:47:01;;;;;;;24.80;3.50;;;8.10;40.30;;;;;;5074144;28;20031;-65
2024/01/21 10:49:27;;;;;;;23.75;3.33;;;7.80;42.00;;;;;;5056239;28;20020;-65
2024/01/21 10:51:53;;;;;;;16.70;2.67;;;8.00;43.00;;;;;;5073968;28;20078;-65
2024/01/21 10:54:20;;;;;;;14.13;2.85;;;8.30;42.20;;;;;;5073654;28;20535;-66
2024/01/21 10:56:48;;;;;;;8.90;2.50;;;8.60;41.60;;;;;;5074057;28;20039;-65
2024/01/21 10:59:14;;;;;;;3.37;2.33;;;8.50;40.50;;;;;;5056204;28;20029;-65
2024/01/21 11:01:42;;;;;;;7.32;2.50;;;7.80;41.40;;;;;;5055809;28;20094;-65
2024/01/21 11:04:12;;;;;;;6.40;2.30;;;8.00;41.40;;;;;;5073931;28;20021;-65
2024/01/21 11:06:44;;;;;;;3.42;2.10;;;8.00;41.70;;;;;;5074036;28;20051;-65
2024/01/21 11:09:10;;;;;;;3.50;1.60;;;8.70;41.20;;;;;;5056045;28;20024;-64
2024/01/21 11:11:48;;;;;;;4.50;1.95;;;8.50;39.60;;;;;;5073453;28;20055;-65
2024/01/21 11:14:41;;;;;;;2.67;1.95;;;8.40;41.00;;;;;;5073727;28;20468;-65
2024/01/21 11:17:12;;;;;;;2.63;1.92;;;9.00;39.50;;;;;;5052629;28;20589;-65
2024/01/21 11:19:47;;;;;;;5.53;2.22;;;9.40;39.50;;;;;;5074103;28;20108;-65
2024/01/21 11:22:14;;;;;;;5.95;2.38;;;8.80;40.00;;;;;;5055911;28;20037;-64
2024/01/21 11:24:41;;;;;;;8.13;2.65;;;8.90;40.60;;;;;;5055753;28;20025;-65
2024/01/21 11:27:19;;;;;;;5.82;2.30;;;9.60;39.80;;;;;;5073806;28;20025;-65
2024/01/21 11:29:47;;;;;;;10.10;3.13;;;10.20;39.80;;;;;;5073960;28;20035;-65
2024/01/21 11:32:13;;;;;;;9.02;2.58;;;11.50;39.40;;;;;;5073524;28;20021;-65
2024/01/21 11:34:44;;;;;;;7.82;3.33;;;12.20;37.30;;;;;;5073599;28;20464;-65
2024/01/21 11:37:13;;;;;;;4.32;2.55;;;12.10;37.00;;;;;;5076579;28;20036;-64
2024/01/21 11:39:40;;;;;;;5.63;3.17;;;11.90;36.50;;;;;;5077391;28;20051;-65
2024/01/21 11:42:06;;;;;;;34.78;4.05;;;11.40;36.80;;;;;;5059693;28;20021;-65
2024/01/21 11:44:33;;;;;;;10.43;3.90;;;11.30;37.60;;;;;;5077704;28;20032;-65
2024/01/21 11:47:04;;;;;;;8.38;2.60;;;11.10;38.20;;;;;;5078492;28;20115;-65
2024/01/21 11:49:34;;;;;;;3.47;2.33;;;10.80;37.70;;;;;;5078337;28;20070;-65
2024/01/21 11:52:00;;;;;;;61.40;6.57;;;10.80;38.00;;;;;;5077870;28;20056;-68
2024/01/21 11:54:28;;;;;;;6.20;2.55;;;11.20;38.00;;;;;;5077174;28;20055;-65
2024/01/21 11:56:53;;;;;;;5.45;2.70;;;11.20;37.40;;;;;;5077404;28;20028;-64
2024/01/21 11:59:19;;;;;;;6.18;2.35;;;11.70;37.00;;;;;;5077204;28;20143;-65
2024/01/21 12:01:47;;;;;;;3.90;2.20;;;11.40;37.30;;;;;;5077465;28;20094;-64
2024/01/21 12:04:13;;;;;;;13.98;3.20;;;11.50;37.80;;;;;;5059225;28;20032;-64
2024/01/21 12:06:44;;;;;;;4.43;2.40;;;11.70;37.10;;;;;;5077468;28;20111;-64
2024/01/21 12:09:11;;;;;;;6.82;2.50;;;10.90;37.80;;;;;;5077602;28;20021;-66
2024/01/21 12:11:38;;;;;;;3.47;2.50;;;11.10;38.90;;;;;;5077439;28;20028;-65
2024/01/21 12:14:06;;;;;;;21.02;3.70;;;11.10;38.70;;;;;;5077289;28;20055;-67
2024/01/21 12:16:32;;;;;;;6.53;2.60;;;11.20;39.30;;;;;;5077022;28;20116;-65
2024/01/21 12:18:58;;;;;;;4.90;2.60;;;10.60;39.80;;;;;;5058987;28;20024;-64
2024/01/21 12:21:27;;;;;;;5.70;2.30;;;10.50;39.50;;;;;;5058936;28;20028;-64
2024/01/21 12:23:53;;;;;;;3.75;2.78;;;10.00;40.30;;;;;;5076992;28;20024;-64
2024/01/21 12:26:21;;;;;;;10.60;3.33;;;10.20;40.30;;;;;;5077016;28;20111;-64
2024/01/21 12:29:09;;;;;;;5.00;2.75;;;10.50;40.50;;;;;;5076877;28;20482;-63
2024/01/21 12:31:39;;;;;;;5.65;2.65;;;10.30;41.00;;;;;;5058972;28;20482;-64
2024/01/21 12:34:06;;;;;;;6.07;2.78;;;10.10;40.90;;;;;;5076545;28;20064;-64
2024/01/21 12:36:34;;;;;;;7.00;3.38;;;11.00;40.80;;;;;;5076547;28;20032;-64
2024/01/21 12:39:00;;;;;;;7.35;3.10;;;10.60;40.70;;;;;;5076642;28;20037;-67
2024/01/21 12:41:26;;;;;;;9.70;3.10;;;11.20;40.20;;;;;;5058986;28;20027;-64